Wichita Mid Continent Airport
KICT : now visible

Aeroporto :











RITROVATECI SU...

 
LOGIN :

Iscrizione | Disclaimer

   EN    FR    IT 

 









Sommario :    VFR   VFR Marginale   IFR   IFR Intensivo   IFR Molto Intensivo
Visibilità : 
Base nubi : 
>= 8 km
>= 3000ft
5 / 8 km
1000 / 3000 ft
1500m / 5 km
500 / 1000 ft
800 / 1500m
200 / 500 ft
< 800m
< 200 ft
Simboli :   Temporali  Nebbia  Neve Forte  Precipitazioni Forti  Vento > 20 kt






- Altitudine del aeroporto : 1333 ft
- Codice IATA : ICT


KICT - Wichita Mid Continent

ULTIMO METAR :
  • 231453Z 16007KT 10SM -RA FEW060 BKN080 BKN100 BKN180 07/04 A2997 RMK AO2 SLP152 P0001 60001 T00720039 53007

METARs OBSOLETI :
  • 231353Z 15007KT 10SM -RA BKN085 BKN110 BKN180 07/03 A2996 RMK AO2 RAB27 SLP146 P0000 T00720033
  • 231253Z 16008KT 10SM OVC120 08/03 A2995 RMK AO2 SLP142 T00780028

TAF KICT
Valido dal 23 a 12 ore il 24 a 12 ore UTC


231125Z 2312/2412 16008KT P6SM OVC090
FM231800 13009KT P6SM VCSH OVC040
FM232100 11010KT 6SM -RA OVC025
FM240000 09012KT 5SM RA OVC015
FM240600 05014G20KT 3SM RA BR OVC008



MetMap, La meteo Aeronautica in un colpo d'occhio ! - Copyright ORBIFLY Dicembre 2007 - Disclaimer

ORBIFLY MET'MAP TEAM :

Programmazione e sviluppo : Alexandra Zaïnal
Concezione : Baudouin d'Aumeries
Aiuto per la programmazione : Marc-Olivier Méhu
Supporto tecnico e logistico : Manuel Goepfert
Aiuto per la traduzione : Arnaldo La Scala

Contatto : metmap@orbifly.com




FONTI E CREDITI :

   NOAA       Earth
Advisory